createdAt,value
2018-08-03T02:16:01.435Z,0.1
2018-08-03T02:18:06.100Z,0.2
2018-08-03T02:20:01.086Z,0.3
2018-08-03T02:22:01.232Z,0.4
2018-08-03T02:23:01.118Z,0.5
2018-08-03T02:25:01.095Z,0.6
2018-08-03T02:26:01.097Z,0.7
2018-08-03T02:28:01.230Z,0.8
2018-08-03T02:29:01.097Z,0.9
2018-08-03T02:30:01.106Z,0.9
2018-08-03T02:31:01.094Z,1.1
2018-08-03T02:33:01.318Z,1.2
2018-08-03T02:34:01.098Z,1.3
2018-08-03T02:36:01.102Z,1.5
2018-08-03T02:37:01.092Z,1.6
2018-08-03T02:38:01.236Z,1.7
2018-08-03T02:39:01.095Z,1.9
2018-08-03T02:40:01.097Z,2.1
2018-08-03T02:41:01.096Z,2.4
2018-08-03T02:42:01.097Z,2.7
2018-08-03T02:43:01.240Z,3.0
2018-08-03T02:44:01.102Z,3.4
2018-08-03T02:45:01.093Z,3.8
2018-08-03T02:46:01.105Z,4.2
2018-08-03T02:47:01.095Z,4.7
2018-08-03T02:48:01.233Z,5.3
2018-08-03T02:49:06.098Z,6.0
2018-08-03T02:50:01.099Z,6.8
2018-08-03T02:51:01.094Z,7.7
2018-08-03T02:52:01.097Z,8.7
2018-08-03T02:53:01.244Z,9.9
2018-08-03T02:54:06.098Z,11.2
2018-08-03T02:55:01.095Z,12.7
2018-08-03T02:56:01.097Z,14.5
2018-08-03T02:57:01.096Z,16.5
2018-08-03T02:58:01.326Z,18.7
2018-08-03T02:59:01.125Z,21.3
2018-08-03T03:00:01.095Z,24.3
2018-08-03T03:01:01.095Z,27.8
2018-08-03T03:02:01.097Z,31.7
2018-08-03T03:03:01.242Z,36.1
2018-08-03T03:04:01.096Z,41.1
2018-08-03T03:05:01.095Z,46.9
2018-08-03T03:06:01.100Z,53.5
2018-08-03T03:08:01.230Z,62.2
2018-08-03T03:09:01.129Z,72.0
2018-08-03T03:10:01.089Z,83.1
2018-08-03T03:11:01.087Z,95.6
2018-08-03T03:12:01.094Z,109.7
2018-08-03T03:13:01.293Z,125.7
2018-08-03T03:14:01.085Z,143.7
2018-08-03T03:15:01.090Z,163.8
2018-08-03T03:16:01.094Z,186.4
2018-08-03T03:17:01.093Z,211.7
2018-08-03T03:18:01.227Z,240.3
2018-08-03T03:19:01.069Z,272.3
2018-08-03T03:20:01.094Z,308.3
2018-08-03T03:21:01.090Z,348.3
2018-08-03T03:22:01.091Z,392.7
2018-08-03T03:23:01.243Z,440.5
2018-08-03T03:24:01.091Z,492.8
2018-08-03T03:25:01.090Z,549.7
2018-08-03T03:26:01.094Z,610.9
2018-08-03T03:27:01.095Z,676.3
2018-08-03T03:28:01.234Z,746.2
2018-08-03T03:29:01.096Z,820.6
2018-08-03T03:30:01.097Z,899.7
2018-08-03T03:31:01.096Z,983.5
2018-08-03T03:32:06.096Z,1072.3
2018-08-03T03:33:01.243Z,1166.5
2018-08-03T03:34:01.098Z,1266.6
2018-08-03T03:36:01.089Z,1384.1
2018-08-03T03:37:06.090Z,1508.8
2018-08-03T03:38:01.229Z,1640.9
2018-08-03T03:39:01.082Z,1779.9
2018-08-03T03:40:01.090Z,1925.9
2018-08-03T03:41:01.096Z,2078.5
2018-08-03T03:42:06.091Z,2238.4
2018-08-03T03:43:01.232Z,2404.7
2018-08-03T03:44:01.090Z,2576.5
2018-08-03T03:45:01.090Z,2753.5
2018-08-03T03:46:01.092Z,2936.5
2018-08-03T03:47:06.094Z,3126.6
2018-08-03T03:48:01.228Z,3323.7
2018-08-03T03:49:01.088Z,3527.7
2018-08-03T03:50:01.090Z,3738.7
2018-08-03T03:51:01.171Z,3946.1
2018-08-03T03:52:01.114Z,4161.3
2018-08-03T03:53:01.327Z,4384.5
2018-08-03T03:54:01.090Z,4615.9
2018-08-03T03:55:01.088Z,4855.0
2018-08-03T03:56:01.090Z,5103.0
2018-08-03T03:57:01.114Z,5364.9
2018-08-03T03:58:01.230Z,5648.5
2018-08-03T03:59:01.102Z,5954.9
2018-08-03T04:00:01.090Z,6280.3
2018-08-03T04:01:06.092Z,6622.2
2018-08-03T04:02:01.090Z,6978.7
2018-08-03T04:03:01.237Z,7347.3
2018-08-03T04:04:01.125Z,7724.9
2018-08-03T04:05:01.089Z,8110.2
2018-08-03T04:06:06.094Z,8501.4
2018-08-03T04:07:01.093Z,8896.6
2018-08-03T04:08:01.233Z,9296.0
2018-08-03T04:09:01.083Z,9699.4
2018-08-03T04:11:06.095Z,10131.9
2018-08-03T04:12:01.087Z,10567.1
2018-08-03T04:13:01.232Z,10999.8
2018-08-03T04:14:06.090Z,11423.5
2018-08-03T04:15:01.090Z,11837.5
2018-08-03T04:16:06.091Z,12245.7
2018-08-03T04:17:01.091Z,12649.9
2018-08-03T04:18:01.228Z,13051.1
2018-08-03T04:19:01.105Z,13451.0
2018-08-03T04:20:01.095Z,13853.1
2018-08-03T04:21:06.092Z,14257.9
2018-08-03T04:22:01.088Z,14666.7
2018-08-03T04:23:01.233Z,15080.3
2018-08-03T04:24:01.118Z,15497.5
2018-08-03T04:25:01.063Z,15918.1
2018-08-03T04:26:06.093Z,16317.9
2018-08-03T04:27:01.090Z,16721.1
2018-08-03T04:28:01.228Z,17127.0
2018-08-03T04:29:01.094Z,17534.2
2018-08-03T04:30:06.090Z,17942.5
2018-08-03T04:31:01.090Z,18352.5
2018-08-03T04:32:01.095Z,18761.5
2018-08-03T04:33:01.232Z,19168.0
2018-08-03T04:34:06.100Z,19573.5
2018-08-03T04:35:01.094Z,19979.8
2018-08-03T04:36:01.089Z,20388.3
2018-08-03T04:37:01.093Z,20798.4
2018-08-03T04:38:01.229Z,21210.4
2018-08-03T04:39:01.168Z,21625.5
2018-08-03T04:40:06.095Z,22045.5
2018-08-03T04:41:01.093Z,22470.8
2018-08-03T04:42:01.129Z,22902.6
2018-08-03T04:43:01.235Z,23339.3
2018-08-03T04:44:01.093Z,23781.1
2018-08-03T04:45:06.095Z,24224.5
2018-08-03T04:46:01.096Z,24668.1
2018-08-03T04:47:01.096Z,25114.1
2018-08-03T04:48:01.233Z,25565.4
2018-08-03T04:49:01.094Z,26020.9
2018-08-03T04:50:06.094Z,26482.7
2018-08-03T04:51:01.103Z,26947.1
2018-08-03T04:52:01.097Z,27409.0
2018-08-03T04:53:01.262Z,27862.7
2018-08-03T04:54:01.097Z,28307.0
2018-08-03T04:55:06.094Z,28742.9
2018-08-03T04:56:01.100Z,29172.7
2018-08-03T04:57:01.096Z,29594.3
2018-08-03T04:58:01.267Z,30012.0
2018-08-03T04:59:01.096Z,30424.8
2018-08-03T05:00:06.108Z,30836.4
2018-08-03T05:01:01.102Z,31257.5
2018-08-03T05:02:01.095Z,31685.7
2018-08-03T05:03:01.238Z,32105.0
2018-08-03T05:04:01.099Z,32519.3
2018-08-03T05:05:06.099Z,32926.3
2018-08-03T05:06:01.098Z,33380.1
2018-08-03T05:07:01.102Z,33889.1
2018-08-03T05:08:01.243Z,34572.9
2018-08-03T05:09:01.105Z,35390.0
2018-08-03T05:10:06.102Z,36288.3
2018-08-03T05:11:01.102Z,37035.3
2018-08-03T05:13:01.291Z,37784.7
2018-08-03T05:14:01.085Z,38610.9
2018-08-03T05:15:06.118Z,39539.8
2018-08-03T05:16:01.086Z,40712.0
2018-08-03T05:17:01.093Z,42023.0
2018-08-03T05:18:01.295Z,43331.5
2018-08-03T05:19:01.110Z,44622.4
2018-08-03T05:20:01.087Z,45909.6
2018-08-03T05:21:01.093Z,47197.2
2018-08-03T05:22:01.091Z,48430.8
2018-08-03T05:23:01.230Z,49562.6
2018-08-03T05:24:01.088Z,50446.1
2018-08-03T05:25:01.092Z,51125.1
2018-08-03T05:26:01.087Z,51639.8
2018-08-03T05:27:01.091Z,52233.7
2018-08-03T05:28:01.233Z,52778.4
2018-08-03T05:29:01.088Z,53226.8
2018-08-03T05:30:01.089Z,53569.0
2018-08-03T05:31:01.095Z,53667.2
2018-08-03T05:32:01.091Z,53626.7
2018-08-03T05:33:01.263Z,53603.3
2018-08-03T05:34:01.098Z,53628.5
2018-08-03T05:35:01.092Z,53687.5
2018-08-03T05:36:01.161Z,53796.4
2018-08-03T05:37:01.092Z,53964.2
2018-08-03T05:38:01.272Z,54233.2
2018-08-03T05:39:01.094Z,54639.5
2018-08-03T05:40:01.093Z,55157.4
2018-08-03T05:41:01.095Z,55792.5
2018-08-03T05:42:01.092Z,56521.5
2018-08-03T05:43:01.270Z,57308.1
2018-08-03T05:44:01.095Z,58123.3
2018-08-03T05:45:01.096Z,58957.6
2018-08-03T05:46:01.094Z,59777.7
2018-08-03T05:47:01.095Z,60593.5
2018-08-03T05:48:01.266Z,61362.7
2018-08-03T05:49:01.095Z,62080.9
2018-08-03T05:50:06.118Z,62744.6
2018-08-03T05:51:01.104Z,63331.0
2018-08-03T05:52:01.100Z,63833.6
2018-08-03T05:53:01.272Z,64254.2
2018-08-03T05:54:01.103Z,64588.5
2018-08-03T05:55:06.115Z,64860.1
2018-08-03T05:56:01.105Z,65073.0
2018-08-03T05:57:01.104Z,65236.1
2018-08-03T05:58:01.255Z,65362.4
2018-08-03T05:59:01.105Z,65451.1
2018-08-03T06:00:06.112Z,65497.8
2018-08-03T06:01:01.108Z,65532.5
2018-08-03T06:02:01.104Z,65535.0
2018-08-03T06:15:01.092Z,65535.0
2018-08-03T06:30:01.098Z,65535.0
2018-08-03T06:45:01.103Z,65535.0
2018-08-03T07:00:01.134Z,65535.0
2018-08-03T07:15:01.229Z,65535.0
2018-08-03T07:30:01.222Z,65535.0
2018-08-03T07:45:01.226Z,65535.0
2018-08-03T08:00:01.235Z,65535.0
2018-08-03T08:15:01.100Z,65535.0
2018-08-03T08:30:01.235Z,65535.0
2018-08-03T08:45:01.092Z,65535.0
2018-08-03T09:00:01.093Z,65535.0
2018-08-03T09:15:01.102Z,65535.0
2018-08-03T09:30:01.293Z,65535.0
2018-08-03T09:45:01.086Z,65535.0
2018-08-03T10:00:01.198Z,65535.0
2018-08-03T10:15:01.090Z,65535.0
2018-08-03T10:30:01.359Z,65535.0
2018-08-03T10:45:01.087Z,65535.0
2018-08-03T11:00:01.215Z,65535.0
2018-08-03T11:15:01.094Z,65535.0
2018-08-03T11:30:01.144Z,65535.0
2018-08-03T11:45:01.236Z,65535.0
2018-08-03T12:00:01.165Z,65535.0
2018-08-03T12:15:01.082Z,65535.0
2018-08-03T12:30:01.154Z,65535.0
2018-08-03T12:45:01.091Z,65535.0
2018-08-03T13:00:01.210Z,65535.0
2018-08-03T13:15:01.224Z,65535.0
2018-08-03T13:30:01.096Z,65535.0
2018-08-03T13:45:01.103Z,65535.0
2018-08-03T14:00:01.096Z,65535.0
2018-08-03T14:15:01.428Z,65535.0
2018-08-03T14:31:01.291Z,65535.0
2018-08-03T14:45:01.093Z,65535.0
2018-08-03T15:00:02.502Z,65535.0
2018-08-03T15:15:01.232Z,65535.0
2018-08-03T15:30:01.303Z,65535.0
2018-08-03T15:45:01.296Z,65535.0
2018-08-03T16:00:01.365Z,65535.0
2018-08-03T16:15:01.102Z,65535.0
2018-08-03T16:20:01.227Z,64662.6
2018-08-03T16:21:01.105Z,63756.3
2018-08-03T16:22:01.334Z,63013.5
2018-08-03T16:23:01.100Z,61176.5
2018-08-03T16:24:01.102Z,59284.8
2018-08-03T16:25:01.116Z,57574.4
2018-08-03T16:26:01.106Z,55936.5
2018-08-03T16:27:01.241Z,54184.0
2018-08-03T16:28:01.104Z,52441.0
2018-08-03T16:29:01.102Z,50906.0
2018-08-03T16:30:01.104Z,49157.7
2018-08-03T16:31:01.105Z,47194.6
2018-08-03T16:32:01.243Z,45224.8
2018-08-03T16:33:01.099Z,43233.3
2018-08-03T16:34:01.105Z,41172.1
2018-08-03T16:36:01.086Z,39947.5
2018-08-03T16:37:01.294Z,38740.5
2018-08-03T16:38:01.087Z,37356.1
2018-08-03T16:39:01.085Z,37052.9
2018-08-03T16:40:01.088Z,36791.8
2018-08-03T16:41:01.091Z,36337.7
2018-08-03T16:42:01.233Z,35800.0
2018-08-03T16:43:01.095Z,35367.9
2018-08-03T16:44:01.095Z,34917.1
2018-08-03T16:45:01.092Z,34249.9
2018-08-03T16:46:01.092Z,33788.0
2018-08-03T16:47:01.231Z,33532.8
2018-08-03T16:48:01.098Z,33275.3
2018-08-03T16:49:01.093Z,33029.7
2018-08-03T16:50:01.093Z,32845.1
2018-08-03T16:51:01.095Z,32687.1
2018-08-03T16:52:01.238Z,32535.9
2018-08-03T16:53:01.090Z,32390.3
2018-08-03T16:54:01.092Z,32250.7
2018-08-03T16:55:01.094Z,32115.5
2018-08-03T16:56:01.094Z,31984.4
2018-08-03T16:57:01.237Z,31857.2
2018-08-03T16:58:01.094Z,31731.7
2018-08-03T16:59:01.092Z,31608.2
2018-08-03T17:00:01.093Z,31485.8
2018-08-03T17:01:01.094Z,31363.6
2018-08-03T17:02:01.262Z,31241.1
2018-08-03T17:03:01.100Z,31118.7
2018-08-03T17:04:01.092Z,30997.7
2018-08-03T17:05:01.099Z,30876.1
2018-08-03T17:06:06.095Z,30754.2
2018-08-03T17:07:01.240Z,30632.9
2018-08-03T17:08:01.098Z,30510.7
2018-08-03T17:09:01.100Z,30387.2
2018-08-03T17:10:01.095Z,30263.1
2018-08-03T17:11:01.137Z,30137.3
2018-08-03T17:12:01.248Z,30009.0
2018-08-03T17:13:01.098Z,29878.3
2018-08-03T17:14:01.099Z,29745.3
2018-08-03T17:15:01.098Z,29611.4
2018-08-03T17:16:01.134Z,29476.5
2018-08-03T17:17:01.257Z,29342.3
2018-08-03T17:19:01.160Z,29201.9
2018-08-03T17:20:01.090Z,29061.9
2018-08-03T17:21:01.089Z,28919.7
2018-08-03T17:22:06.088Z,28777.4
2018-08-03T17:23:01.236Z,28634.5
2018-08-03T17:24:01.106Z,28492.5
2018-08-03T17:25:01.090Z,28350.3
2018-08-03T17:26:01.089Z,28209.1
2018-08-03T17:27:01.111Z,28068.5
2018-08-03T17:28:01.300Z,27928.5
2018-08-03T17:29:01.090Z,27789.5
2018-08-03T17:30:01.095Z,27649.0
2018-08-03T17:31:01.095Z,27506.2
2018-08-03T17:32:06.189Z,27361.9
2018-08-03T17:33:01.229Z,27215.4
2018-08-03T17:34:01.089Z,27072.9
2018-08-03T17:35:01.093Z,26926.5
2018-08-03T17:36:01.089Z,26779.7
2018-08-03T17:37:06.090Z,26631.9
2018-08-03T17:38:01.236Z,26484.0
2018-08-03T17:39:01.090Z,26331.9
2018-08-03T17:40:01.092Z,26178.9
2018-08-03T17:41:01.092Z,26021.7
2018-08-03T17:42:06.097Z,25862.2
2018-08-03T17:43:01.296Z,25700.2
2018-08-03T17:44:01.092Z,25535.1
2018-08-03T17:45:01.099Z,25370.3
2018-08-03T17:46:01.101Z,25204.0
2018-08-03T17:47:06.095Z,25036.6
2018-08-03T17:48:01.310Z,24867.8
2018-08-03T17:49:01.095Z,24699.1
2018-08-03T17:50:01.105Z,24531.3
2018-08-03T17:51:01.137Z,24363.9
2018-08-03T17:52:01.096Z,24195.7
2018-08-03T17:53:01.262Z,24025.4
2018-08-03T17:54:01.095Z,23856.3
2018-08-03T17:55:01.097Z,23684.2
2018-08-03T17:56:06.146Z,23511.9
2018-08-03T17:57:01.099Z,23337.3
2018-08-03T17:58:01.238Z,23160.6
2018-08-03T17:59:01.099Z,22982.9
2018-08-03T18:00:01.096Z,22802.3
2018-08-03T18:01:06.105Z,22620.9
2018-08-03T18:02:01.099Z,22437.5
2018-08-03T18:03:01.314Z,22252.3
2018-08-03T18:04:01.093Z,22064.2
2018-08-03T18:05:01.099Z,21873.3
2018-08-03T18:06:01.099Z,21680.3
2018-08-03T18:07:01.097Z,21484.7
2018-08-03T18:09:01.080Z,21273.9
2018-08-03T18:10:01.089Z,21061.1
2018-08-03T18:11:01.079Z,20846.8
2018-08-03T18:12:01.083Z,20631.5
2018-08-03T18:13:01.229Z,20415.1
2018-08-03T18:14:01.078Z,20197.9
2018-08-03T18:15:01.083Z,19980.2
2018-08-03T18:16:01.089Z,19761.8
2018-08-03T18:17:01.078Z,19542.5
2018-08-03T18:18:01.260Z,19321.9
2018-08-03T18:19:01.081Z,19099.9
2018-08-03T18:20:01.081Z,18876.9
2018-08-03T18:21:01.079Z,18652.5
2018-08-03T18:22:01.080Z,18426.5
2018-08-03T18:23:01.286Z,18198.9
2018-08-03T18:24:01.082Z,17982.9
2018-08-03T18:25:01.079Z,17764.5
2018-08-03T18:26:01.085Z,17544.4
2018-08-03T18:27:01.084Z,17321.6
2018-08-03T18:28:01.255Z,17096.7
2018-08-03T18:29:01.172Z,16869.9
2018-08-03T18:30:01.108Z,16639.9
2018-08-03T18:31:01.080Z,16406.9
2018-08-03T18:32:01.086Z,16170.5
2018-08-03T18:33:01.304Z,15931.2
2018-08-03T18:34:01.083Z,15689.1
2018-08-03T18:35:01.087Z,15444.2
2018-08-03T18:36:01.087Z,15196.9
2018-08-03T18:37:01.086Z,14947.2
2018-08-03T18:38:01.260Z,14695.4
2018-08-03T18:39:01.088Z,14440.7
2018-08-03T18:40:01.084Z,14183.8
2018-08-03T18:41:01.092Z,13923.9
2018-08-03T18:42:01.088Z,13660.9
2018-08-03T18:43:01.261Z,13394.7
2018-08-03T18:44:01.090Z,13125.1
2018-08-03T18:45:01.086Z,12850.7
2018-08-03T18:46:01.106Z,12567.6
2018-08-03T18:47:01.085Z,12274.2
2018-08-03T18:48:01.261Z,11971.1
2018-08-03T18:49:01.105Z,11658.3
2018-08-03T18:50:01.095Z,11337.3
2018-08-03T18:51:01.105Z,11009.7
2018-08-03T18:52:01.090Z,10676.7
2018-08-03T18:53:01.283Z,10339.1
2018-08-03T18:54:01.088Z,9998.1
2018-08-03T18:55:01.091Z,9654.8
2018-08-03T18:56:01.101Z,9310.0
2018-08-03T18:57:01.133Z,8964.9
2018-08-03T18:58:01.235Z,8620.5
2018-08-03T18:59:01.097Z,8277.8
2018-08-03T19:00:01.101Z,7939.1
2018-08-03T19:01:01.095Z,7609.5
2018-08-03T19:02:01.122Z,7291.0
2018-08-03T19:03:01.270Z,6983.7
2018-08-03T19:04:01.100Z,6687.9
2018-08-03T19:05:01.096Z,6402.6
2018-08-03T19:06:01.103Z,6126.4
2018-08-03T19:07:01.135Z,5858.8
2018-08-03T19:09:01.081Z,5585.7
2018-08-03T19:10:01.180Z,5321.0
2018-08-03T19:11:01.082Z,5063.9
2018-08-03T19:12:01.112Z,4814.5
2018-08-03T19:13:01.222Z,4572.5
2018-08-03T19:14:01.084Z,4337.2
2018-08-03T19:15:01.088Z,4108.1
2018-08-03T19:16:01.083Z,3885.1
2018-08-03T19:17:01.106Z,3668.5
2018-08-03T19:18:01.298Z,3458.2
2018-08-03T19:19:01.111Z,3254.4
2018-08-03T19:20:01.083Z,3057.0
2018-08-03T19:21:01.084Z,2866.2
2018-08-03T19:22:01.297Z,2682.2
2018-08-03T19:23:01.263Z,2504.9
2018-08-03T19:24:01.085Z,2347.5
2018-08-03T19:25:01.083Z,2196.1
2018-08-03T19:26:01.086Z,2050.2
2018-08-03T19:27:01.130Z,1910.0
2018-08-03T19:28:01.231Z,1775.7
2018-08-03T19:29:01.115Z,1647.7
2018-08-03T19:30:01.087Z,1526.0
2018-08-03T19:31:01.085Z,1410.5
2018-08-03T19:32:01.157Z,1301.1
2018-08-03T19:33:01.230Z,1197.6
2018-08-03T19:34:01.087Z,1099.7
2018-08-03T19:35:01.154Z,1007.5
2018-08-03T19:36:01.091Z,920.9
2018-08-03T19:37:01.120Z,839.6
2018-08-03T19:38:01.300Z,763.5
2018-08-03T19:39:01.085Z,692.7
2018-08-03T19:40:01.095Z,626.9
2018-08-03T19:41:01.090Z,566.3
2018-08-03T19:42:06.087Z,510.6
2018-08-03T19:43:01.233Z,459.5
2018-08-03T19:44:06.095Z,412.9
2018-08-03T19:45:01.171Z,370.3
2018-08-03T19:46:01.174Z,331.5
2018-08-03T19:47:01.141Z,296.2
2018-08-03T19:48:01.238Z,264.1
2018-08-03T19:49:01.132Z,235.1
2018-08-03T19:50:01.108Z,208.9
2018-08-03T19:51:01.107Z,185.3
2018-08-03T19:52:01.102Z,164.1
2018-08-03T19:53:01.285Z,145.0
2018-08-03T19:54:06.112Z,127.9
2018-08-03T19:55:01.097Z,112.6
2018-08-03T19:56:01.100Z,98.9
2018-08-03T19:57:01.097Z,86.8
2018-08-03T19:58:01.235Z,76.1
2018-08-03T19:59:01.186Z,66.6
2018-08-03T20:01:01.085Z,58.1
2018-08-03T20:02:01.081Z,50.7
2018-08-03T20:03:01.228Z,44.2
2018-08-03T20:04:01.110Z,38.5
2018-08-03T20:05:01.143Z,33.5
2018-08-03T20:06:01.082Z,29.1
2018-08-03T20:07:01.090Z,25.3
2018-08-03T20:08:01.323Z,21.9
2018-08-03T20:09:01.126Z,18.9
2018-08-03T20:10:01.090Z,16.4
2018-08-03T20:11:06.091Z,14.1
2018-08-03T20:12:01.092Z,12.2
2018-08-03T20:13:01.230Z,10.5
2018-08-03T20:14:01.089Z,9.0
2018-08-03T20:15:01.091Z,7.7
2018-08-03T20:16:01.092Z,6.7
2018-08-03T20:17:01.119Z,5.9
2018-08-03T20:18:01.232Z,5.1
2018-08-03T20:19:01.091Z,4.5
2018-08-03T20:20:01.094Z,3.9
2018-08-03T20:21:01.090Z,3.4
2018-08-03T20:22:01.113Z,3.0
2018-08-03T20:23:01.236Z,2.7
2018-08-03T20:24:01.099Z,2.3
2018-08-03T20:25:01.099Z,2.1
2018-08-03T20:26:01.114Z,1.9
2018-08-03T20:27:01.095Z,1.7
2018-08-03T20:28:01.227Z,1.5
2018-08-03T20:29:01.096Z,1.3
2018-08-03T20:30:01.099Z,1.1
2018-08-03T20:31:06.102Z,1.0
2018-08-03T20:32:01.098Z,0.9
2018-08-03T20:33:01.245Z,0.7
2018-08-03T20:34:01.096Z,0.6
2018-08-03T20:35:01.095Z,0.5
2018-08-03T20:37:01.102Z,0.4
2018-08-03T20:38:01.241Z,0.3
2018-08-03T20:40:02.125Z,0.2
2018-08-03T20:41:06.103Z,0.1
